createdAt,value
2023-04-03T00:01:11.745Z,102767.56
2023-04-03T00:03:39.531Z,102776.31
2023-04-03T00:06:08.063Z,102780.47
2023-04-03T00:08:35.970Z,102782.88
2023-04-03T00:11:05.861Z,102783.59
2023-04-03T00:13:34.309Z,102783.38
2023-04-03T00:16:03.108Z,102777.13
2023-04-03T00:18:31.272Z,102779.59
2023-04-03T00:20:59.196Z,102777.69
2023-04-03T00:23:27.060Z,102775.50
2023-04-03T00:25:55.670Z,102769.97
2023-04-03T00:28:24.896Z,102782.09
2023-04-03T00:30:53.436Z,102786.56
2023-04-03T00:33:22.777Z,102778.63
2023-04-03T00:35:51.086Z,102776.81
2023-04-03T00:38:19.440Z,102778.47
2023-04-03T00:40:49.825Z,102779.31
2023-04-03T00:43:19.855Z,102774.84
2023-04-03T00:45:50.533Z,102779.22
2023-04-03T00:48:22.183Z,102780.94
2023-04-03T00:50:51.506Z,102777.31
2023-04-03T00:53:23.994Z,102787.81
2023-04-03T00:55:53.018Z,102791.19
2023-04-03T00:58:22.670Z,102787.56
2023-04-03T01:00:59.197Z,102792.84
2023-04-03T01:03:26.911Z,102792.84
2023-04-03T01:05:54.748Z,102789.28
2023-04-03T01:08:22.549Z,102791.94
2023-04-03T01:10:50.221Z,102792.94
2023-04-03T01:13:24.794Z,102795.56
2023-04-03T01:15:54.119Z,102795.56
2023-04-03T01:18:23.765Z,102801.19
2023-04-03T01:21:30.839Z,102807.63
2023-04-03T01:24:09.673Z,102796.56
2023-04-03T01:26:37.790Z,102798.13
2023-04-03T01:29:06.193Z,102808.59
2023-04-03T01:31:47.024Z,102806.19
2023-04-03T01:34:14.874Z,102807.22
2023-04-03T01:36:42.957Z,102810.09
2023-04-03T01:39:10.853Z,102821.56
2023-04-03T01:41:38.870Z,102812.88
2023-04-03T01:44:06.973Z,102812.81
2023-04-03T01:46:34.806Z,102813.63
2023-04-03T01:49:04.343Z,102815.53
2023-04-03T01:51:32.569Z,102810.25
2023-04-03T01:54:00.257Z,102814.72
2023-04-03T01:56:27.973Z,102812.16
2023-04-03T01:58:55.693Z,102812.88
2023-04-03T02:01:23.610Z,102814.63
2023-04-03T02:03:51.392Z,102812.97
2023-04-03T02:06:20.475Z,102815.44
2023-04-03T02:08:48.355Z,102821.41
2023-04-03T02:11:16.190Z,102825.47
2023-04-03T02:13:43.880Z,102821.25
2023-04-03T02:16:13.421Z,102826.38
2023-04-03T02:18:41.435Z,102825.56
2023-04-03T02:21:09.257Z,102833.28
2023-04-03T02:23:38.526Z,102831.56
2023-04-03T02:26:08.646Z,102829.84
2023-04-03T02:28:37.419Z,102826.28
2023-04-03T02:31:07.256Z,102826.94
2023-04-03T02:33:37.008Z,102821.59
2023-04-03T02:36:05.778Z,102822.25
2023-04-03T02:38:33.718Z,102824.88
2023-04-03T02:41:03.897Z,102819.28
2023-04-03T02:43:31.715Z,102829.94
2023-04-03T02:45:59.589Z,102826.28
2023-04-03T02:48:27.954Z,102831.63
2023-04-03T02:50:56.202Z,102832.41
2023-04-03T02:53:24.486Z,102829.69
2023-04-03T02:55:52.524Z,102828.75
2023-04-03T02:58:24.741Z,102831.31
2023-04-03T03:00:52.621Z,102836.59
2023-04-03T03:03:20.537Z,102844.53
2023-04-03T03:05:49.077Z,102841.81
2023-04-03T03:08:16.889Z,102839.09
2023-04-03T03:10:44.631Z,102846.13
2023-04-03T03:13:12.373Z,102843.28
2023-04-03T03:15:41.493Z,102843.19
2023-04-03T03:18:09.230Z,102848.47
2023-04-03T03:20:37.280Z,102847.59
2023-04-03T03:23:05.334Z,102847.59
2023-04-03T03:25:33.155Z,102850.06
2023-04-03T03:28:00.991Z,102844.03
2023-04-03T03:30:28.725Z,102850.13
2023-04-03T03:32:57.948Z,102835.91
2023-04-03T03:35:25.964Z,102846.59
2023-04-03T03:37:53.677Z,102834.28
2023-04-03T03:40:21.548Z,102836.03
2023-04-03T03:42:49.295Z,102843.97
2023-04-03T03:45:17.167Z,102832.88
2023-04-03T03:47:46.600Z,102839.72
2023-04-03T03:50:15.782Z,102841.53
2023-04-03T03:52:43.446Z,102840.28
2023-04-03T03:55:11.340Z,102836.88
2023-04-03T03:57:39.221Z,102843.84
2023-04-03T04:00:08.336Z,102842.50
2023-04-03T04:02:36.237Z,102845.84
2023-04-03T04:05:04.318Z,102847.69
2023-04-03T04:07:33.605Z,102850.97
2023-04-03T04:10:01.497Z,102853.28
2023-04-03T04:12:29.356Z,102848.09
2023-04-03T04:14:57.078Z,102852.63
2023-04-03T04:17:25.413Z,102850.00
2023-04-03T04:19:53.184Z,102850.81
2023-04-03T04:22:20.994Z,102864.91
2023-04-03T04:24:50.110Z,102870.66
2023-04-03T04:27:17.932Z,102867.28
2023-04-03T04:29:45.696Z,102871.59
2023-04-03T04:32:13.444Z,102870.16
2023-04-03T04:34:41.307Z,102872.63
2023-04-03T04:37:09.183Z,102867.41
2023-04-03T04:39:37.041Z,102872.69
2023-04-03T04:42:08.066Z,102871.88
2023-04-03T04:44:35.935Z,102885.00
2023-04-03T04:47:03.721Z,102879.88
2023-04-03T04:49:31.464Z,102885.34
2023-04-03T04:51:59.219Z,102892.16
2023-04-03T04:54:27.079Z,102893.09
2023-04-03T04:56:55.452Z,102896.19
2023-04-03T04:59:24.648Z,102905.00
2023-04-03T05:01:52.469Z,102893.66
2023-04-03T05:04:20.358Z,102899.09
2023-04-03T05:06:48.670Z,102894.63
2023-04-03T05:09:16.474Z,102895.97
2023-04-03T05:11:44.281Z,102895.19
2023-04-03T05:14:12.111Z,102895.81
2023-04-03T05:16:41.242Z,102901.63
2023-04-03T05:19:09.005Z,102896.28
2023-04-03T05:21:36.916Z,102904.19
2023-04-03T05:24:05.249Z,102905.38
2023-04-03T05:26:33.974Z,102907.75
2023-04-03T05:29:01.728Z,102911.28
2023-04-03T05:31:30.598Z,102910.31
2023-04-03T05:34:00.234Z,102914.84
2023-04-03T05:36:28.031Z,102916.75
2023-04-03T05:38:57.287Z,102915.13
2023-04-03T05:41:25.903Z,102919.56
2023-04-03T05:43:53.730Z,102922.03
2023-04-03T05:46:23.303Z,102928.97
2023-04-03T05:48:51.428Z,102931.88
2023-04-03T05:51:26.872Z,102942.59
2023-04-03T05:54:00.929Z,102941.06
2023-04-03T05:56:28.780Z,102940.03
2023-04-03T05:59:00.429Z,102947.78
2023-04-03T06:01:28.421Z,102949.06
2023-04-03T06:03:56.902Z,102949.34
2023-04-03T06:06:26.407Z,102953.03
2023-04-03T06:08:54.357Z,102954.25
2023-04-03T06:11:22.911Z,102950.88
2023-04-03T06:13:50.721Z,102954.41
2023-04-03T06:16:19.508Z,102947.13
2023-04-03T06:18:47.270Z,102953.97
2023-04-03T06:21:15.003Z,102948.88
2023-04-03T06:23:44.146Z,102945.03
2023-04-03T06:26:12.151Z,102943.75
2023-04-03T06:28:39.819Z,102943.38
2023-04-03T06:31:07.576Z,102945.47
2023-04-03T06:33:35.916Z,102950.38
2023-04-03T06:36:07.496Z,102941.25
2023-04-03T06:38:35.895Z,102944.13
2023-04-03T06:41:05.543Z,102946.69
2023-04-03T06:43:34.583Z,102944.50
2023-04-03T06:46:02.965Z,102951.69
2023-04-03T06:48:30.899Z,102952.34
2023-04-03T06:50:58.873Z,102954.31
2023-04-03T06:53:27.139Z,102962.78
2023-04-03T06:55:54.862Z,102960.63
2023-04-03T06:58:24.075Z,102966.69
2023-04-03T07:00:51.776Z,102969.59
2023-04-03T07:03:19.754Z,102970.84
2023-04-03T07:05:47.464Z,102970.06
2023-04-03T07:08:15.646Z,102981.41
2023-04-03T07:10:43.665Z,102977.69
2023-04-03T07:13:11.958Z,102982.66
2023-04-03T07:15:41.100Z,102986.31
2023-04-03T07:18:09.310Z,102976.72
2023-04-03T07:20:37.333Z,102981.50
2023-04-03T07:23:05.190Z,102985.91
2023-04-03T07:25:34.781Z,102983.50
2023-04-03T07:28:02.883Z,102978.94
2023-04-03T07:30:30.743Z,102986.78
2023-04-03T07:32:59.871Z,102988.72
2023-04-03T07:35:27.642Z,102987.47
2023-04-03T07:37:55.367Z,102995.31
2023-04-03T07:40:23.140Z,102992.34
2023-04-03T07:42:51.217Z,102989.97
2023-04-03T07:45:20.017Z,102999.88
2023-04-03T07:47:48.891Z,102996.63
2023-04-03T07:50:18.736Z,102994.06
2023-04-03T07:52:47.379Z,102990.69
2023-04-03T07:55:15.482Z,103000.28
2023-04-03T07:57:43.515Z,102997.88
2023-04-03T08:00:13.157Z,103002.16
2023-04-03T08:02:41.039Z,102997.38
2023-04-03T08:05:09.661Z,102990.75
2023-04-03T08:07:40.280Z,102994.94
2023-04-03T08:10:08.981Z,102990.91
2023-04-03T08:12:37.851Z,102992.03
2023-04-03T08:15:06.573Z,103004.50
2023-04-03T08:17:34.506Z,102995.69
2023-04-03T08:20:02.533Z,103001.50
2023-04-03T08:22:30.294Z,102994.25
2023-04-03T08:24:59.852Z,102996.38
2023-04-03T08:27:28.492Z,103007.34
2023-04-03T08:29:56.334Z,102992.69
2023-04-03T08:32:24.162Z,103005.94
2023-04-03T08:34:52.154Z,102993.91
2023-04-03T08:37:20.144Z,103007.22
2023-04-03T08:39:48.758Z,103001.59
2023-04-03T08:42:26.536Z,103005.56
2023-04-03T08:45:01.109Z,103000.59
2023-04-03T08:47:39.014Z,103008.56
2023-04-03T08:50:10.847Z,103000.81
2023-04-03T08:52:42.869Z,103005.50
2023-04-03T08:55:23.552Z,103003.16
2023-04-03T08:57:56.770Z,103014.75
2023-04-03T09:00:27.558Z,103019.16
2023-04-03T09:02:57.111Z,103018.16
2023-04-03T09:05:37.166Z,103007.81
2023-04-03T09:08:09.746Z,103023.72
2023-04-03T09:10:41.742Z,103015.34
2023-04-03T09:13:20.201Z,103010.91
2023-04-03T09:15:48.153Z,103013.78
2023-04-03T09:18:21.723Z,103025.47
2023-04-03T09:20:58.374Z,103014.41
2023-04-03T09:23:32.600Z,103009.63
2023-04-03T09:26:06.022Z,103013.75
2023-04-03T09:28:46.889Z,103005.47
2023-04-03T09:31:22.205Z,103008.38
2023-04-03T09:33:51.310Z,103011.03
2023-04-03T09:36:41.561Z,103013.81
2023-04-03T09:39:14.292Z,103014.94
2023-04-03T09:41:42.559Z,103018.91
2023-04-03T09:44:26.695Z,103013.44
2023-04-03T09:46:54.839Z,103010.47
2023-04-03T09:49:22.677Z,103018.56
2023-04-03T09:51:50.521Z,103013.31
2023-04-03T09:54:33.618Z,103007.56
2023-04-03T09:57:07.025Z,103000.06
2023-04-03T09:59:36.765Z,103006.75
2023-04-03T10:02:38.509Z,103007.13
2023-04-03T10:05:26.701Z,103007.47
2023-04-03T10:10:37.180Z,103001.19
2023-04-03T10:13:12.249Z,102998.88
2023-04-03T10:15:47.478Z,102999.00
2023-04-03T10:18:34.741Z,102999.34
2023-04-03T10:21:14.550Z,102986.03
2023-04-03T10:23:56.820Z,102982.84
2023-04-03T10:26:34.866Z,102988.44
2023-04-03T10:29:15.733Z,102970.81
2023-04-03T10:31:53.334Z,102983.22
2023-04-03T10:34:26.292Z,102967.53
2023-04-03T10:37:02.005Z,102968.22
2023-04-03T10:39:37.396Z,102962.94
2023-04-03T10:42:17.151Z,102954.13
2023-04-03T10:45:01.393Z,102950.91
2023-04-03T10:47:39.382Z,102964.44
2023-04-03T10:50:28.630Z,102976.38
2023-04-03T10:53:03.665Z,102962.97
2023-04-03T10:55:38.263Z,102954.97
2023-04-03T10:58:08.780Z,102954.94
2023-04-03T11:00:42.155Z,102964.06
2023-04-03T11:03:17.201Z,102950.97
2023-04-03T11:05:47.110Z,102955.63
2023-04-03T11:08:27.328Z,102948.81
2023-04-03T11:10:59.527Z,102936.47
2023-04-03T11:13:35.463Z,102938.16
2023-04-03T11:16:06.602Z,102934.63
2023-04-03T11:18:42.753Z,102931.19
2023-04-03T11:21:15.059Z,102932.41
2023-04-03T11:23:49.606Z,102939.72
2023-04-03T11:26:21.904Z,102933.22
2023-04-03T11:28:55.042Z,102928.47
2023-04-03T11:31:38.490Z,102931.28
2023-04-03T11:34:29.037Z,102939.06
2023-04-03T11:37:01.242Z,102936.34
2023-04-03T11:39:32.997Z,102932.84
2023-04-03T11:42:17.359Z,102922.56
2023-04-03T11:44:45.227Z,102922.09
2023-04-03T11:47:33.870Z,102918.63
2023-04-03T11:50:06.439Z,102927.44
2023-04-03T11:53:00.228Z,102927.25
2023-04-03T11:55:53.503Z,102919.69
2023-04-03T11:58:22.191Z,102913.44
2023-04-03T12:01:05.308Z,102909.22
2023-04-03T12:04:09.032Z,102911.66
2023-04-03T12:07:03.940Z,102905.16
2023-04-03T12:09:49.549Z,102904.69
2023-04-03T12:12:30.731Z,102895.09
2023-04-03T12:15:19.995Z,102877.53
2023-04-03T12:17:48.102Z,102890.78
2023-04-03T12:20:53.125Z,102886.34
2023-04-03T12:23:31.570Z,102874.53
2023-04-03T12:26:11.958Z,102879.81
2023-04-03T12:28:41.692Z,102880.69
2023-04-03T12:31:13.675Z,102870.63
2023-04-03T12:34:01.412Z,102864.84
2023-04-03T12:36:38.744Z,102857.91
2023-04-03T12:39:26.209Z,102849.34
2023-04-03T12:42:04.697Z,102866.50
2023-04-03T12:44:48.328Z,102855.88
2023-04-03T12:47:37.197Z,102856.13
2023-04-03T12:50:06.936Z,102856.31
2023-04-03T12:52:41.805Z,102835.50
2023-04-03T12:55:18.838Z,102845.94
2023-04-03T12:57:47.091Z,102840.28
2023-04-03T13:00:23.625Z,102846.38
2023-04-03T13:02:51.555Z,102845.94
2023-04-03T13:05:21.642Z,102834.13
2023-04-03T13:07:53.738Z,102834.28
2023-04-03T13:10:22.955Z,102828.91
2023-04-03T13:12:52.707Z,102829.13
2023-04-03T13:15:24.029Z,102817.38
2023-04-03T13:17:53.731Z,102824.03
2023-04-03T13:20:27.152Z,102824.56
2023-04-03T13:22:59.708Z,102817.69
2023-04-03T13:25:30.434Z,102814.25
2023-04-03T13:28:10.539Z,102810.75
2023-04-03T13:30:43.255Z,102817.06
2023-04-03T13:33:25.637Z,102809.97
2023-04-03T13:35:59.069Z,102822.41
2023-04-03T13:38:32.379Z,102828.13
2023-04-03T13:41:05.403Z,102802.03
2023-04-03T13:43:35.847Z,102812.16
2023-04-03T13:46:26.073Z,102807.94
2023-04-03T13:48:57.382Z,102811.63
2023-04-03T13:51:27.882Z,102799.28
2023-04-03T13:53:58.450Z,102795.13
2023-04-03T13:56:32.852Z,102807.72
2023-04-03T13:59:05.853Z,102795.03
2023-04-03T14:01:54.281Z,102786.94
2023-04-03T14:04:24.567Z,102789.91
2023-04-03T14:06:52.712Z,102791.75
2023-04-03T14:09:22.492Z,102789.97
2023-04-03T14:11:54.457Z,102789.88
2023-04-03T14:14:24.742Z,102780.16
2023-04-03T14:16:56.218Z,102772.25
2023-04-03T14:19:26.274Z,102773.75
2023-04-03T14:21:55.424Z,102772.91
2023-04-03T14:24:23.771Z,102771.88
2023-04-03T14:26:55.555Z,102771.81
2023-04-03T14:29:23.957Z,102773.66
2023-04-03T14:32:03.600Z,102759.16
2023-04-03T14:34:36.187Z,102765.38
2023-04-03T14:37:04.059Z,102761.13
2023-04-03T14:39:32.248Z,102762.16
2023-04-03T14:42:01.437Z,102758.78
2023-04-03T14:44:29.516Z,102746.56
2023-04-03T14:46:57.948Z,102759.91
2023-04-03T14:49:30.328Z,102751.84
2023-04-03T14:51:58.332Z,102756.19
2023-04-03T14:54:28.964Z,102743.38
2023-04-03T14:56:59.106Z,102747.69
2023-04-03T14:59:29.331Z,102757.34
2023-04-03T15:01:57.083Z,102751.81
2023-04-03T15:04:26.306Z,102742.34
2023-04-03T15:06:54.792Z,102745.25
2023-04-03T15:09:24.752Z,102739.06
2023-04-03T15:11:54.062Z,102737.13
2023-04-03T15:14:35.386Z,102729.28
2023-04-03T15:17:06.978Z,102737.34
2023-04-03T15:19:40.014Z,102750.72
2023-04-03T15:22:08.002Z,102752.31
2023-04-03T15:24:35.837Z,102742.03
2023-04-03T15:27:03.865Z,102734.03
2023-04-03T15:29:31.698Z,102741.44
2023-04-03T15:31:59.822Z,102741.56
2023-04-03T15:34:30.219Z,102742.38
2023-04-03T15:36:57.970Z,102750.81
2023-04-03T15:39:27.296Z,102740.06
2023-04-03T15:41:56.113Z,102747.25
2023-04-03T15:44:24.157Z,102748.28
2023-04-03T15:46:52.388Z,102743.56
2023-04-03T15:49:22.005Z,102737.53
2023-04-03T15:51:51.722Z,102742.81
2023-04-03T15:54:19.585Z,102748.09
2023-04-03T15:56:47.339Z,102746.09
2023-04-03T15:59:15.079Z,102742.28
2023-04-03T16:01:42.998Z,102746.88
2023-04-03T16:04:11.517Z,102745.31
2023-04-03T16:06:39.981Z,102738.44
2023-04-03T16:09:09.599Z,102736.72
2023-04-03T16:11:40.339Z,102742.03
2023-04-03T16:14:08.353Z,102740.09
2023-04-03T16:16:37.250Z,102744.50
2023-04-03T16:19:06.333Z,102748.06
2023-04-03T16:21:34.849Z,102741.00
2023-04-03T16:24:03.376Z,102748.69
2023-04-03T16:26:32.581Z,102749.41
2023-04-03T16:29:00.339Z,102752.13
2023-04-03T16:31:29.298Z,102755.41
2023-04-03T16:33:57.629Z,102756.84
2023-04-03T16:36:26.814Z,102750.34
2023-04-03T16:38:54.740Z,102752.19
2023-04-03T16:41:22.619Z,102753.94
2023-04-03T16:43:52.152Z,102751.09
2023-04-03T16:46:19.949Z,102735.16
2023-04-03T16:48:48.192Z,102750.59
2023-04-03T16:51:15.981Z,102759.56
2023-04-03T16:53:44.782Z,102759.91
2023-04-03T16:56:12.885Z,102761.94
2023-04-03T16:58:40.702Z,102771.88
2023-04-03T17:01:14.579Z,102764.69
2023-04-03T17:03:42.460Z,102761.91
2023-04-03T17:06:16.782Z,102758.91
2023-04-03T17:08:45.040Z,102762.06
2023-04-03T17:11:12.855Z,102768.34
2023-04-03T17:13:40.706Z,102767.50
2023-04-03T17:16:11.806Z,102769.22
2023-04-03T17:18:42.674Z,102762.84
2023-04-03T17:21:10.713Z,102760.13
2023-04-03T17:23:40.488Z,102760.16
2023-04-03T17:26:14.302Z,102768.03
2023-04-03T17:28:43.507Z,102761.41
2023-04-03T17:31:12.036Z,102769.50
2023-04-03T17:33:41.244Z,102764.06
2023-04-03T17:36:09.768Z,102764.78
2023-04-03T17:38:37.877Z,102763.88
2023-04-03T17:41:08.028Z,102757.53
2023-04-03T17:43:36.846Z,102765.38
2023-04-03T17:46:08.778Z,102768.94
2023-04-03T17:48:38.320Z,102772.16
2023-04-03T17:51:08.200Z,102770.03
2023-04-03T17:53:36.035Z,102772.72
2023-04-03T17:56:08.091Z,102770.75
2023-04-03T17:58:35.921Z,102772.25
2023-04-03T18:01:10.322Z,102768.47
2023-04-03T18:03:38.371Z,102775.53
2023-04-03T18:06:10.759Z,102777.56
2023-04-03T18:08:42.275Z,102780.09
2023-04-03T18:11:10.678Z,102780.97
2023-04-03T18:13:39.055Z,102772.00
2023-04-03T18:16:09.427Z,102778.31
2023-04-03T18:18:37.858Z,102781.88
2023-04-03T18:21:09.641Z,102775.47
2023-04-03T18:23:40.649Z,102781.59
2023-04-03T18:26:11.384Z,102784.13
2023-04-03T18:28:41.961Z,102778.81
2023-04-03T18:31:13.426Z,102786.69
2023-04-03T18:33:41.636Z,102782.91
2023-04-03T18:36:11.977Z,102781.75
2023-04-03T18:38:40.024Z,102782.56
2023-04-03T18:41:11.759Z,102781.59
2023-04-03T18:43:39.562Z,102782.28
2023-04-03T18:46:08.180Z,102781.34
2023-04-03T18:48:36.610Z,102784.81
2023-04-03T18:51:05.999Z,102784.81
2023-04-03T18:53:35.415Z,102782.91
2023-04-03T18:56:03.347Z,102784.41
2023-04-03T18:58:31.743Z,102787.72
2023-04-03T19:00:59.818Z,102789.44
2023-04-03T19:03:30.104Z,102785.91
2023-04-03T19:06:00.786Z,102779.69
2023-04-03T19:08:29.087Z,102784.03
2023-04-03T19:10:58.346Z,102787.44
2023-04-03T19:13:28.000Z,102792.59
2023-04-03T19:15:59.059Z,102797.91
2023-04-03T19:18:27.323Z,102800.31
2023-04-03T19:21:01.292Z,102795.91
2023-04-03T19:23:29.035Z,102787.84
2023-04-03T19:26:02.365Z,102802.00
2023-04-03T19:28:30.495Z,102800.97
2023-04-03T19:30:59.179Z,102799.09
2023-04-03T19:33:27.482Z,102798.13
2023-04-03T19:35:55.655Z,102809.59
2023-04-03T19:38:25.193Z,102809.31
2023-04-03T19:40:53.669Z,102808.16
2023-04-03T19:43:22.968Z,102805.13
2023-04-03T19:45:50.844Z,102806.84
2023-04-03T19:48:18.668Z,102805.06
2023-04-03T19:50:46.401Z,102801.44
2023-04-03T19:53:19.286Z,102796.00
2023-04-03T19:55:47.186Z,102804.84
2023-04-03T19:58:14.890Z,102798.72
2023-04-03T20:00:44.370Z,102798.47
2023-04-03T20:03:55.568Z,102797.53
2023-04-03T20:06:29.435Z,102799.25
2023-04-03T20:08:57.146Z,102796.47
2023-04-03T20:11:26.600Z,102796.47
2023-04-03T20:13:55.940Z,102790.25
2023-04-03T20:16:26.084Z,102786.50
2023-04-03T20:18:56.236Z,102791.50
2023-04-03T20:21:28.696Z,102792.22
2023-04-03T20:23:56.236Z,102790.97
2023-04-03T20:26:27.195Z,102789.03
2023-04-03T20:28:56.880Z,102791.56
2023-04-03T20:31:28.092Z,102796.03
2023-04-03T20:33:56.853Z,102792.44
2023-04-03T20:36:26.550Z,102789.69
2023-04-03T20:38:54.426Z,102793.22
2023-04-03T20:41:22.579Z,102802.03
2023-04-03T20:44:00.666Z,102791.28
2023-04-03T20:46:42.156Z,102791.13
2023-04-03T20:49:18.371Z,102785.69
2023-04-03T20:51:46.074Z,102794.34
2023-04-03T20:54:14.670Z,102792.63
2023-04-03T20:56:42.666Z,102788.09
2023-04-03T20:59:11.502Z,102796.81
2023-04-03T21:01:40.895Z,102795.78
2023-04-03T21:04:15.763Z,102790.31
2023-04-03T21:07:20.737Z,102792.84
2023-04-03T21:10:28.265Z,102795.56
2023-04-03T21:13:34.270Z,102794.53
2023-04-03T21:16:02.247Z,102797.00
2023-04-03T21:18:58.285Z,102796.00
2023-04-03T21:21:27.470Z,102798.50
2023-04-03T21:23:56.455Z,102800.16
2023-04-03T21:26:27.621Z,102805.44
2023-04-03T21:28:55.888Z,102800.91
2023-04-03T21:31:24.456Z,102799.78
2023-04-03T21:33:53.698Z,102800.59
2023-04-03T21:36:21.715Z,102811.84
2023-04-03T21:38:50.071Z,102811.78
2023-04-03T21:41:17.847Z,102810.88
2023-04-03T21:43:47.035Z,102816.13
2023-04-03T21:46:14.845Z,102811.50
2023-04-03T21:48:42.617Z,102812.13
2023-04-03T21:51:12.058Z,102810.09
2023-04-03T21:53:40.771Z,102807.03
2023-04-03T21:56:08.957Z,102803.25
2023-04-03T21:58:36.846Z,102805.69
2023-04-03T22:01:11.648Z,102797.69
2023-04-03T22:03:40.935Z,102805.56
2023-04-03T22:06:09.296Z,102796.69
2023-04-03T22:08:38.791Z,102799.25
2023-04-03T22:11:08.173Z,102793.81
2023-04-03T22:13:36.406Z,102798.03
2023-04-03T22:16:04.605Z,102790.81
2023-04-03T22:18:32.635Z,102788.19
2023-04-03T22:21:00.516Z,102786.34
2023-04-03T22:23:28.298Z,102784.53
2023-04-03T22:26:01.668Z,102782.50
2023-04-03T22:28:29.939Z,102770.19
2023-04-03T22:30:57.728Z,102776.16
2023-04-03T22:33:25.551Z,102771.47
2023-04-03T22:35:53.824Z,102776.78
2023-04-03T22:38:22.480Z,102767.78
2023-04-03T22:40:58.664Z,102776.44
2023-04-03T22:43:29.605Z,102785.13
2023-04-03T22:45:57.885Z,102782.41
2023-04-03T22:48:25.925Z,102790.34
2023-04-03T22:50:53.921Z,102785.81
2023-04-03T22:53:21.773Z,102793.59
2023-04-03T22:55:55.688Z,102788.91
2023-04-03T22:58:26.001Z,102782.53
2023-04-03T23:00:56.678Z,102787.84
2023-04-03T23:03:25.724Z,102787.78
2023-04-03T23:05:55.993Z,102784.91
2023-04-03T23:08:23.936Z,102791.56
2023-04-03T23:10:55.151Z,102790.44
2023-04-03T23:13:22.901Z,102783.16
2023-04-03T23:15:55.190Z,102785.81
2023-04-03T23:18:22.960Z,102784.06
2023-04-03T23:20:51.897Z,102782.31
2023-04-03T23:23:19.892Z,102780.53
2023-04-03T23:25:52.656Z,102778.63
2023-04-03T23:28:20.860Z,102782.00
2023-04-03T23:30:48.851Z,102778.00
2023-04-03T23:33:18.036Z,102776.88
2023-04-03T23:35:48.600Z,102782.84
2023-04-03T23:38:17.557Z,102782.75
2023-04-03T23:40:47.063Z,102786.16
2023-04-03T23:43:14.922Z,102778.97
2023-04-03T23:45:42.796Z,102786.00
2023-04-03T23:48:10.692Z,102789.47
2023-04-03T23:50:40.130Z,102794.44
2023-04-03T23:53:08.503Z,102781.16
2023-04-03T23:55:36.839Z,102789.09
2023-04-03T23:58:04.685Z,102781.88
